Date,TemperatureHighF,TemperatureAvgF,TemperatureLowF,DewpointHighF,DewpointAvgF,DewpointLowF,HumidityHigh,HumidityAvg,HumidityLow,PressureMaxIn,PressureMinIn,WindSpeedMaxMPH,WindSpeedAvgMPH,GustSpeedMaxMPH,PrecipitationSumIn
2012-1-5,48,41,40,17,14,6,39,33,19,29.77,29.68,2,0,4,0.00
2012-1-6,83,55,36,50,30,16,76,41,14,29.71,29.56,13,3,17,0.00
2012-1-7,60,55,50,57,50,30,91,82,48,29.74,29.59,6,2,9,0.00
2012-1-8,59,51,45,43,33,0,84,50,37,29.80,29.71,7,2,8,0.00
2012-1-9,54,50,46,46,35,0,85,59,39,29.83,29.71,8,2,11,0.00
2012-1-10,59,53,49,57,43,29,92,69,47,29.71,29.26,7,3,9,0.00
2012-1-11,57,48,45,55,45,0,95,87,71,29.32,29.18,7,2,10,0.00
2012-1-12,48,35,24,43,15,-1,81,45,31,29.68,29.32,10,4,13,0.00
2012-1-13,44,30,19,8,3,-2,54,33,20,29.85,29.68,10,1,13,0.00
2012-1-14,58,41,24,13,8,2,42,26,17,29.94,29.71,14,3,22,0.00
2012-1-15,57,44,26,16,12,7,54,29,17,30.09,29.85,11,3,14,0.00
2012-1-16,67,60,53,39,30,14,39,32,20,29.85,29.62,17,9,26,0.00
2012-1-17,70,56,32,59,33,8,82,44,26,29.91,29.53,19,7,26,0.00
2012-1-18,44,33,23,19,9,3,72,38,20,29.97,29.74,7,2,10,0.00
2012-1-19,61,45,26,48,23,11,92,50,19,29.74,29.53,11,3,16,0.00
2012-1-20,69,57,47,48,44,36,93,66,37,29.59,29.38,13,2,17,0.00
2012-1-21,68,41,35,48,30,0,86,65,46,29.71,29.41,11,6,19,0.00
2012-1-22,70,59,0,50,46,0,93,61,42,29.59,29.29,17,6,23,0.00
2012-1-23,61,51,35,50,26,0,82,40,19,29.74,29.35,9,2,15,0.00
2012-1-24,63,46,28,30,18,8,88,42,16,29.88,29.74,8,2,10,0.00
2012-1-25,64,54,46,57,30,12,91,43,24,29.80,29.44,8,3,11,0.00
2012-1-26,61,53,42,59,48,29,92,81,54,29.50,29.26,8,2,10,0.00
2012-1-27,60,45,34,37,26,13,91,54,19,29.71,29.50,6,1,8,0.00
2012-1-28,50,42,24,34,13,-1,80,32,19,30.03,29.65,11,3,19,0.00
2012-1-29,58,41,21,20,12,4,88,39,17,30.06,29.94,9,2,15,0.00
2012-1-30,65,52,37,17,10,1,22,18,15,29.97,29.83,13,4,17,0.00
2012-1-31,70,62,50,30,23,11,27,23,17,29.85,29.71,14,6,18,0.00
2012-2-1,70,70,70,29,29,29,22,22,22,29.77,29.62,11,2,15,0.00
2012-2-2,70,70,70,29,29,29,22,22,22,29.88,29.77,9,2,13,0.00
2012-2-3,70,70,70,29,29,29,22,22,22,29.85,29.74,9,3,14,0.00
2012-2-4,70,70,70,29,29,29,22,22,22,29.74,29.65,7,3,10,0.00
2012-2-5,70,70,70,29,29,29,22,22,22,29.88,29.74,7,2,10,0.00
2012-2-6,70,63,32,29,26,11,71,26,22,29.91,29.83,8,1,10,0.00
2012-2-7,61,44,26,28,18,10,85,42,16,29.88,29.83,6,1,11,0.00
2012-2-8,52,43,38,29,17,9,67,35,26,30.00,29.88,9,2,15,0.00
2012-2-9,52,39,30,14,10,4,42,31,18,30.00,29.83,7,1,10,0.00
2012-2-10,43,37,30,37,20,9,86,51,33,29.83,29.65,9,1,13,0.00
2012-2-11,36,28,18,15,0,-9,41,29,22,30.18,29.74,13,5,20,0.00
2012-2-12,44,28,16,2,-4,-10,46,26,18,30.21,29.97,8,1,11,0.00
2012-2-13,41,32,18,29,9,-2,72,41,21,29.97,29.53,9,3,13,0.00
2012-2-14,46,41,34,38,28,19,88,63,36,29.71,29.50,8,1,12,0.00
2012-2-15,58,48,33,43,32,25,90,58,29,29.77,29.59,8,2,12,0.00
2012-2-16,57,53,47,50,35,25,88,53,33,29.83,29.62,8,2,11,0.00
2012-2-19,75,47,0,26,14,0,24,14,15,29.65,29.62,8,5,11,0.00
2012-2-20,73,53,0,20,10,0,19,17,14,29.68,29.62,9,6,13,0.00
2012-2-21,54,48,0,28,13,0,47,24,18,29.65,29.56,12,4,17,0.00
2012-2-22,59,51,0,46,24,0,68,35,21,29.56,29.21,8,4,9,0.00
2012-2-23,82,66,52,52,32,0,75,34,15,29.21,28.97,19,7,27,0.00
2012-2-24,63,50,33,19,9,-1,25,19,16,29.85,29.21,9,2,13,0.00
2012-2-25,79,43,26,23,9,0,51,27,12,29.97,29.85,4,0,9,0.00
2012-2-26,70,51,32,19,9,-1,25,19,15,29.94,29.77,13,2,17,0.00
2012-2-27,90,59,44,31,16,7,29,20,10,30.00,29.85,7,0,11,0.00
2012-2-28,76,61,48,57,30,16,76,34,16,29.94,29.59,10,3,14,0.00
2012-2-29,73,67,48,57,41,22,71,39,28,29.62,29.41,15,6,24,0.00
2012-3-1,86,61,36,37,24,17,72,30,11,29.59,29.32,9,2,12,0.00
2012-3-2,85,69,44,43,31,6,39,25,13,29.53,29.15,22,8,29,0.00
2012-3-3,82,49,30,24,11,-1,51,24,11,29.65,29.50,10,2,15,0.00
2012-3-4,73,50,29,20,11,-3,46,22,13,29.71,29.56,13,2,21,0.00
2012-3-5,81,53,39,24,12,4,31,19,12,30.06,29.65,9,2,16,0.00
2012-3-6,74,58,43,21,13,5,20,17,13,30.00,29.83,11,6,19,0.00
2012-3-7,73,64,52,32,21,10,27,19,15,29.91,29.74,15,7,24,0.00
2012-3-8,74,58,0,55,38,0,77,51,26,29.94,29.65,15,8,22,0.00
2012-3-9,80,49,36,34,19,6,77,37,12,30.09,29.94,12,5,18,0.00
2012-3-10,88,54,34,26,13,6,31,21,10,30.06,29.85,6,2,10,0.00
2012-3-11,71,58,43,54,29,14,77,36,17,29.88,29.71,8,3,14,0.00
2012-3-12,75,66,60,57,48,39,85,54,30,29.77,29.65,14,5,17,0.00
2012-3-13,80,70,61,55,43,31,78,41,23,29.83,29.71,10,3,12,0.00
2012-3-14,80,62,0,52,43,0,70,50,22,29.83,29.74,7,1,9,0.00
2012-3-15,92,72,61,55,38,25,78,34,14,29.85,29.74,13,3,15,0.00
2012-3-16,76,67,0,57,42,0,70,41,22,29.85,29.71,6,1,10,0.00
2012-3-17,74,66,61,36,32,28,38,30,18,29.74,29.68,4,0,5,0.00
2012-3-18,94,68,62,36,33,25,38,29,11,29.80,29.68,10,3,13,0.00
2012-3-19,82,71,68,39,34,0,34,26,14,29.71,29.56,12,4,19,0.00
2012-3-20,87,80,74,30,27,21,16,15,13,29.62,29.50,13,4,20,0.00
2012-3-21,86,86,86,30,30,30,13,13,13,29.62,29.53,15,5,28,0.00
2012-3-22,86,86,86,30,30,30,13,13,13,29.68,29.56,11,1,15,0.00
2012-3-23,86,81,56,34,30,23,42,17,13,29.59,29.53,11,3,16,0.00
2012-3-24,86,63,46,46,29,21,76,32,13,29.59,29.50,7,1,10,0.00
2012-3-25,99,67,0,54,34,0,78,37,10,29.68,29.53,9,2,14,0.00
2012-3-26,97,68,47,45,34,23,76,37,11,29.77,29.65,8,1,11,0.00
2012-3-27,92,69,55,37,30,22,49,25,12,29.77,29.65,8,2,10,0.00
2012-3-28,93,70,57,43,34,24,52,29,12,29.74,29.59,9,2,12,0.00
2012-3-29,89,70,55,52,38,27,75,35,13,29.65,29.50,7,1,10,0.00
2012-3-30,74,66,60,61,50,39,82,59,29,29.56,29.41,6,1,9,0.00
2012-3-31,93,72,59,63,48,34,91,50,17,29.50,29.41,8,1,10,0.00
2012-4-1,88,75,60,54,41,32,72,33,16,29.50,29.35,10,3,15,0.00
2012-4-2,87,68,0,43,37,0,46,32,19,29.53,29.41,10,2,15,0.00
2012-4-3,93,67,58,61,50,32,92,63,14,29.59,29.41,10,1,17,0.00
2012-4-4,68,61,59,66,58,54,95,91,69,29.53,29.41,3,0,4,0.00
2012-4-5,74,59,0,41,35,0,52,39,21,29.53,29.38,8,2,12,0.00
2012-4-6,91,62,47,48,33,0,80,42,12,29.74,29.53,9,3,14,0.00
2012-4-7,50,50,50,28,28,0,43,43,43,29.85,29.74,5,0,8,0.00
2012-4-8,88,63,48,39,30,24,73,32,16,29.91,29.80,10,2,15,0.00
2012-4-9,90,61,39,46,34,23,89,46,12,29.83,29.68,7,0,10,0.00
2012-4-10,68,60,48,52,39,34,90,51,33,29.74,29.68,8,1,13,0.00
2012-4-11,87,65,44,36,23,10,35,22,12,29.85,29.71,10,2,15,0.00
2012-4-12,81,56,33,32,22,15,75,32,12,29.88,29.74,5,0,8,0.00
2012-4-13,86,65,47,36,29,22,51,28,13,29.77,29.68,10,2,13,0.00
2012-4-14,83,63,0,41,33,0,35,28,19,29.71,29.56,8,4,13,0.00
2012-4-15,86,75,65,46,41,36,50,31,20,29.65,29.47,13,7,20,0.00
2012-4-16,75,60,56,59,48,37,94,69,33,29.83,29.50,14,1,17,0.00
2012-4-17,62,58,49,46,39,34,84,51,34,29.91,29.80,8,1,11,0.00
2012-4-18,77,58,44,50,35,22,95,53,15,29.83,29.68,11,2,14,0.00
2012-4-19,80,61,42,50,35,25,86,45,17,29.68,29.50,6,1,8,0.00
2012-4-20,65,55,0,59,48,0,90,78,48,29.53,29.44,9,1,14,0.00
2012-4-21,64,53,45,48,34,24,90,52,24,29.59,29.50,10,3,17,0.00
2012-4-22,68,53,38,43,31,24,84,48,20,29.65,29.47,14,2,29,0.00
2012-4-23,65,52,42,32,21,14,53,32,15,29.74,29.59,11,3,17,0.00
2012-4-24,75,57,38,41,29,23,76,39,16,29.65,29.44,10,2,13,0.00
2012-4-25,70,67,0,41,38,0,43,34,28,29.50,29.38,13,6,20,0.00
2012-4-26,74,71,68,45,42,41,42,35,34,29.56,29.44,12,4,15,0.00
2012-4-27,82,73,68,54,45,39,59,38,25,29.62,29.53,7,1,10,0.00
2012-4-28,79,72,68,48,46,41,47,41,28,29.65,29.53,12,4,16,0.00
2012-4-29,87,74,63,57,45,37,76,38,19,29.71,29.65,8,2,10,0.00
2012-4-30,75,72,70,52,50,48,50,44,39,29.62,29.59,3,0,4,0.00
2012-5-1,90,77,65,63,48,39,86,43,19,29.68,29.56,12,3,16,0.00
2012-5-2,79,70,0,59,51,0,77,53,30,29.65,29.59,12,1,18,0.00
2012-5-3,74,70,69,59,49,48,67,47,46,29.68,29.59,6,2,9,0.00
2012-5-4,89,78,67,64,52,43,89,49,20,29.68,29.56,7,2,10,0.00
2012-5-5,89,89,89,43,43,43,20,20,20,29.62,29.47,8,2,11,0.00
2012-5-6,93,87,72,54,44,41,46,23,17,29.59,29.47,10,2,17,0.00
2012-5-7,71,66,66,57,56,45,74,71,39,29.59,29.47,7,0,13,0.00
2012-5-8,66,66,66,57,57,57,74,74,74,29.59,29.50,8,1,12,0.00
2012-5-9,66,66,66,57,57,57,74,74,74,29.62,29.53,9,1,13,0.00
2012-5-10,66,66,66,57,57,57,74,74,74,29.62,29.56,6,0,9,0.00
2012-5-11,66,66,66,57,57,57,74,74,74,29.74,29.62,6,1,9,0.00
2012-5-12,66,66,66,57,57,57,74,74,74,29.74,29.74,3,0,4,0.00
2012-5-18,80,68,0,59,50,0,72,53,20,29.62,29.56,3,0,5,0.00
2012-5-19,90,77,64,61,54,43,84,51,21,29.71,29.59,8,2,10,0.00
2012-5-20,91,75,59,66,55,41,96,59,19,29.77,29.65,6,1,9,0.00
2012-5-21,83,71,62,66,59,50,98,70,35,29.74,29.59,9,2,15,0.00
2012-5-22,83,66,54,57,46,32,97,57,20,29.65,29.50,8,2,14,0.00
2012-5-23,93,68,49,59,45,32,98,54,14,29.53,29.41,6,1,8,0.00
2012-5-24,90,77,62,61,51,43,65,42,24,29.47,29.38,12,4,17,0.00
2012-5-25,91,79,68,63,57,43,81,50,20,29.68,29.47,10,3,13,0.00
2012-5-26,93,80,67,64,58,45,90,54,20,29.77,29.65,8,2,10,0.00
2012-5-27,94,80,64,68,59,46,95,55,20,29.71,29.56,6,1,8,0.00
2012-5-28,96,82,68,68,61,54,88,53,26,29.59,29.47,6,2,9,0.00
2012-5-29,95,83,70,70,58,43,93,50,17,29.53,29.41,8,1,11,0.00
2012-5-30,93,73,61,68,57,41,97,63,18,29.53,29.41,10,2,17,0.00
2012-5-31,88,70,58,68,60,48,97,76,30,29.50,29.32,17,2,25,0.00
2012-6-1,72,64,56,66,48,37,97,60,31,29.59,29.41,8,2,13,0.00
2012-6-2,87,68,52,61,50,41,97,60,27,29.65,29.50,7,2,9,0.00
2012-6-3,94,77,63,75,61,54,93,61,30,29.59,29.44,8,2,11,0.00
2012-6-4,88,74,66,77,67,59,98,80,47,29.56,29.38,10,2,13,0.00
2012-6-5,87,75,64,73,61,46,98,66,28,29.50,29.35,9,2,14,0.00
2012-6-6,84,70,58,57,49,37,94,53,23,29.62,29.47,9,2,13,0.00
2012-6-7,85,71,55,54,48,37,88,49,23,29.65,29.59,8,2,13,0.00
2012-6-8,91,75,61,63,54,46,85,53,22,29.65,29.53,5,1,6,0.00
2012-6-9,90,76,66,66,59,50,91,59,30,29.62,29.50,9,2,14,0.00
2012-6-10,87,76,68,70,62,55,93,64,40,29.56,29.50,6,2,9,0.00
2012-6-11,93,75,66,72,67,55,96,80,38,29.68,29.50,19,3,29,0.00
2012-6-12,84,72,66,72,65,59,98,81,44,29.77,29.59,8,1,11,0.00
2012-6-13,88,73,59,64,53,39,98,59,19,29.71,29.59,6,1,10,0.00
2012-6-14,93,75,58,64,53,39,96,57,18,29.65,29.59,6,0,8,0.00
2012-6-15,94,79,65,66,59,48,90,56,23,29.71,29.59,7,1,10,0.00
2012-6-16,94,80,68,68,62,52,92,58,28,29.80,29.65,8,2,10,0.00
2012-6-17,93,79,66,68,56,45,95,53,21,29.71,29.56,9,2,12,0.00
2012-6-18,94,80,64,66,57,46,86,51,21,29.62,29.53,10,3,13,0.00
2012-6-19,95,81,68,63,53,43,74,42,18,29.71,29.62,10,3,14,0.00
2012-6-20,96,80,67,61,52,43,76,43,17,29.74,29.65,7,1,9,0.00
2012-6-21,96,80,64,63,53,41,81,46,17,29.71,29.56,6,1,9,0.00
2012-6-22,93,80,64,66,58,46,96,54,22,29.59,29.50,8,1,11,0.00
2012-6-23,98,81,65,63,51,41,83,42,16,29.59,29.53,8,1,11,0.00
2012-6-24,100,82,63,59,50,37,78,40,14,29.59,29.47,8,2,10,0.00
2012-6-25,101,85,66,63,52,43,81,38,16,29.50,29.38,9,2,12,0.00
2012-6-26,94,80,62,63,45,28,72,36,11,29.50,29.41,10,2,14,0.00
2012-6-27,102,78,54,57,43,31,83,39,10,29.62,29.50,6,1,8,0.00
2012-6-28,104,84,61,63,52,39,89,43,13,29.68,29.59,7,1,9,0.00
2012-6-29,105,87,69,68,56,41,90,44,12,29.62,29.50,7,1,10,0.00
2012-6-30,105,87,69,68,57,45,88,45,14,29.56,29.47,8,1,10,0.00
2012-7-1,102,87,72,70,60,48,89,48,17,29.65,29.56,8,1,11,0.00
2012-7-2,98,85,71,70,58,43,90,48,17,29.71,29.62,9,2,12,0.00
2012-7-3,100,84,66,64,56,45,89,46,16,29.68,29.53,9,2,12,0.00
2012-7-4,102,87,72,64,55,43,76,40,15,29.68,29.56,8,1,13,0.00
2012-7-5,103,88,71,70,56,45,89,43,15,29.68,29.53,6,1,9,0.00
2012-7-6,103,84,0,70,62,0,96,56,15,29.68,29.50,10,2,24,0.00
2012-7-7,101,83,70,72,65,47,97,62,21,29.65,29.53,10,2,21,0.00
2012-7-8,87,78,72,73,67,59,95,71,39,29.71,29.56,11,2,14,0.00
2012-7-9,90,77,72,81,69,59,96,81,38,29.62,29.53,8,1,9,0.00
2012-7-10,91,78,70,73,67,55,97,73,32,29.59,29.50,8,2,14,0.00
2012-7-11,85,76,72,70,67,61,92,74,48,29.62,29.56,7,1,9,0.00
2012-7-12,84,75,71,73,68,64,96,80,53,29.62,29.56,5,1,8,0.00
2012-7-13,90,77,71,72,66,55,96,72,32,29.71,29.59,8,2,10,0.00
2012-7-14,86,76,71,77,70,61,96,84,44,29.71,29.62,6,0,8,0.00
2012-7-15,90,78,70,75,68,61,97,76,41,29.77,29.65,7,1,8,0.00
2012-7-16,99,82,71,75,67,57,97,66,29,29.71,29.59,7,2,9,0.00
2012-7-17,97,81,72,75,69,57,96,70,28,29.65,29.53,6,1,9,0.00
2012-7-18,101,83,70,79,68,57,96,66,26,29.68,29.53,8,2,12,0.00
2012-7-19,98,82,70,77,68,59,97,67,30,29.68,29.53,7,2,10,0.00
2012-7-20,100,85,74,73,68,59,90,60,28,29.59,29.50,6,2,8,0.00
2012-7-21,96,83,74,75,69,59,96,67,33,29.65,29.53,7,2,10,0.00
2012-7-22,97,83,73,75,68,57,95,64,32,29.74,29.62,9,2,11,0.00
2012-7-23,98,84,72,73,65,55,94,60,26,29.83,29.71,8,2,10,0.00
2012-7-24,97,84,72,73,65,55,92,57,28,29.74,29.56,8,2,11,0.00
2012-7-25,100,85,73,70,64,55,85,53,26,29.65,29.50,9,3,12,0.00
2012-7-26,99,86,73,72,65,55,86,53,26,29.59,29.44,12,4,17,0.00
2012-7-27,96,81,72,72,66,57,92,64,31,29.65,29.53,7,1,10,0.00
2012-7-28,100,84,70,75,61,45,96,55,18,29.68,29.59,7,2,11,0.00
2012-7-29,97,81,65,66,55,43,92,49,17,29.71,29.59,8,1,11,0.00
2012-7-30,103,86,74,75,62,50,94,49,19,29.62,29.47,10,2,13,0.00
2012-7-31,94,81,73,77,70,57,95,74,31,29.59,29.47,4,0,8,0.00
2012-8-1,98,82,69,82,66,54,97,66,26,29.56,29.47,7,1,10,0.00
2012-8-2,97,83,73,72,64,50,87,58,22,29.56,29.44,8,2,10,0.00
2012-8-3,93,81,74,82,72,64,96,73,41,29.59,29.44,9,3,11,0.00
2012-8-4,99,87,76,75,67,57,91,57,25,29.65,29.50,8,3,11,0.00
2012-8-5,94,82,74,73,69,59,91,67,32,29.74,29.65,7,2,10,0.00
2012-8-6,98,83,72,75,63,46,96,60,20,29.71,29.59,7,1,11,0.00
2012-8-7,97,82,68,73,60,45,96,54,20,29.62,29.53,6,1,9,0.00
2012-8-8,100,84,68,70,56,39,93,48,13,29.62,29.50,7,1,9,0.00
2012-8-9,97,84,73,66,58,46,71,46,19,29.56,29.38,8,2,10,0.00
2012-8-10,92,80,67,73,57,41,95,53,18,29.56,29.41,9,3,14,0.00
2012-8-11,90,74,60,55,46,39,79,42,18,29.65,29.53,8,2,11,0.00
2012-8-12,94,76,56,57,47,36,91,45,14,29.68,29.56,8,1,11,0.00
2012-8-13,94,78,68,73,61,52,95,60,29,29.62,29.44,13,4,23,0.00
2012-8-14,87,75,64,68,58,45,96,61,25,29.62,29.50,9,2,11,0.00
2012-8-15,91,77,64,64,56,41,91,55,18,29.65,29.56,7,1,10,0.00
2012-8-16,98,82,68,75,63,48,89,59,20,29.65,29.50,9,3,13,0.00
2012-8-17,85,75,69,73,65,55,97,73,38,29.65,29.53,10,2,15,0.00
2012-8-18,80,73,67,70,58,46,92,64,32,29.62,29.50,5,1,8,0.00
2012-8-19,88,74,63,64,48,34,92,48,16,29.56,29.50,9,2,12,0.00
2012-8-20,91,74,63,57,46,34,75,43,15,29.62,29.53,6,1,10,0.00
2012-8-21,91,74,56,59,46,30,91,48,12,29.68,29.59,7,1,10,0.00
2012-8-22,94,75,58,64,47,31,93,48,11,29.77,29.65,8,1,11,0.00
2012-8-23,96,78,60,59,48,36,87,44,14,29.77,29.62,8,1,12,0.00
2012-8-24,94,78,62,66,51,41,91,47,16,29.71,29.62,11,2,13,0.00
2012-8-25,76,71,68,70,64,52,94,78,51,29.71,29.62,8,2,11,0.00
2012-8-26,97,79,68,70,63,52,96,64,25,29.77,29.62,8,2,10,0.00
2012-8-27,100,82,68,73,58,43,95,53,16,29.71,29.56,8,1,13,0.00
2012-8-28,98,83,71,70,59,46,88,50,19,29.62,29.50,11,3,17,0.00
2012-8-29,100,84,71,64,57,43,71,44,16,29.56,29.41,8,3,13,0.00
2012-8-30,88,78,74,73,66,57,95,68,38,29.56,29.44,11,4,19,0.00
2012-8-31,93,82,74,77,67,57,91,64,32,29.65,29.56,12,6,17,0.00
2012-9-1,95,82,70,72,65,55,95,59,29,29.71,29.53,13,6,17,0.00
2012-9-2,97,79,72,73,70,57,97,78,30,29.59,29.41,12,3,17,0.00
2012-9-3,95,82,73,77,67,54,98,68,29,29.53,29.44,7,1,11,0.00
2012-9-4,94,81,72,73,66,54,94,65,29,29.53,29.47,6,1,9,0.00
2012-9-5,96,80,71,81,66,55,95,68,27,29.53,29.41,7,2,10,0.00
2012-9-6,94,81,70,70,64,55,93,59,29,29.62,29.47,12,2,17,0.00
2012-9-7,93,80,68,79,65,54,97,66,30,29.59,29.38,13,2,19,0.00
2012-9-8,70,70,67,68,68,64,96,94,89,29.53,29.44,8,2,14,0.00
2012-9-9,85,66,52,63,45,32,93,56,17,29.71,29.62,6,0,8,0.00
2012-9-10,85,67,55,57,45,34,90,51,19,29.80,29.71,6,1,8,0.00
2012-9-11,86,69,54,64,47,36,94,54,19,29.83,29.71,7,1,9,0.00
2012-9-12,86,73,63,57,49,39,71,46,20,29.85,29.74,8,2,10,0.00
2012-9-13,88,75,66,59,49,41,69,42,20,29.85,29.74,7,2,9,0.00
2012-9-14,86,74,67,61,55,43,71,52,23,29.85,29.77,7,1,10,0.00
2012-9-15,86,74,66,66,57,45,91,59,25,29.83,29.71,6,1,9,0.00
2012-9-16,88,74,68,66,61,50,92,68,29,29.71,29.59,6,1,9,0.00
2012-9-17,71,68,66,70,67,64,95,94,92,29.65,29.38,4,0,6,0.00
2012-9-18,71,65,50,68,49,28,98,65,22,29.71,29.38,11,3,15,0.00
2012-9-19,73,58,45,57,39,23,93,58,16,29.80,29.68,6,0,8,0.00
2012-9-20,79,63,46,55,42,32,93,56,20,29.74,29.59,7,1,13,0.00
2012-9-21,80,67,54,52,45,37,84,51,21,29.74,29.53,11,2,15,0.00
2012-9-22,82,68,57,57,42,27,85,47,14,29.77,29.56,8,1,12,0.00
2012-9-23,72,62,52,52,33,23,79,37,16,29.88,29.77,6,4,12,0.00
2012-9-24,74,60,46,47,36,28,81,44,21,29.88,29.68,5,4,12,0.00
2012-9-25,86,73,60,64,52,39,70,50,30,29.71,29.62,9,4,13,0.00
2012-9-26,85,74,65,62,52,43,72,49,26,29.74,29.65,8,4,12,0.00
2012-9-27,87,73,62,64,54,43,91,55,22,29.77,29.65,5,4,12,0.00
2012-9-28,87,72,63,64,58,50,89,64,28,29.74,29.62,7,4,13,0.00
2012-9-29,80,71,64,64,54,39,88,58,32,29.68,29.56,8,4,12,0.00
2012-9-30,64,61,56,59,53,45,94,77,49,29.56,29.32,12,4,22,0.00
2012-10-1,68,60,56,66,52,38,96,77,43,29.35,29.18,10,5,17,0.00
2012-10-2,70,59,50,54,43,30,94,62,23,29.59,29.35,4,4,12,0.00
2012-10-3,77,62,0,59,46,0,93,63,24,29.77,29.59,7,4,12,0.00
2012-10-4,81,68,58,64,52,41,92,63,24,29.85,29.77,5,3,12,0.00
2012-10-5,83,68,52,64,52,45,94,63,26,29.80,29.56,10,3,15,0.00
2012-10-6,59,48,44,46,38,27,90,71,30,29.83,29.71,10,4,15,0.00
2012-10-7,58,50,44,45,34,21,96,61,26,29.88,29.77,8,2,11,0.00
2012-10-8,61,51,42,50,38,25,95,67,26,29.85,29.77,5,0,8,0.00
2012-10-9,65,52,37,54,38,31,93,64,30,29.80,29.62,7,1,11,0.00
2012-10-10,66,58,47,52,38,22,80,51,20,29.85,29.68,9,2,13,0.00
2012-10-11,64,56,46,57,42,28,91,62,34,29.88,29.80,3,0,6,0.00
2012-10-12,78,67,58,66,57,50,94,73,40,29.91,29.80,4,0,6,0.00
2012-10-13,82,72,64,66,55,45,93,62,28,29.83,29.62,12,3,16,0.00
2012-10-14,76,68,60,64,57,48,93,69,40,29.65,29.53,13,5,19,0.00
2012-10-15,72,60,49,59,44,29,94,63,21,29.68,29.59,5,0,9,0.00
2012-10-16,76,61,50,54,46,37,92,63,26,29.62,29.44,8,2,12,0.00
2012-10-17,77,66,54,61,48,39,90,56,31,29.47,29.15,12,5,17,0.00
2012-10-18,69,58,48,59,35,18,96,51,15,29.47,29.32,10,2,18,0.00
2012-10-19,66,56,46,37,27,22,68,35,20,29.50,29.38,5,1,15,0.00
2012-10-20,68,54,39,50,35,28,88,55,22,29.62,29.50,7,0,9,0.00
2012-10-21,82,64,51,43,36,27,64,39,14,29.68,29.56,11,2,15,0.00
2012-10-22,79,65,56,48,41,32,72,45,20,29.77,29.65,9,2,13,0.00
2012-10-23,78,66,54,52,43,34,77,48,22,29.74,29.62,10,2,14,0.00
2012-10-24,82,67,58,57,51,45,84,62,29,29.74,29.62,8,2,11,0.00
2012-10-25,80,68,58,57,52,45,83,60,29,29.65,29.56,10,2,14,0.00
2012-10-26,65,49,43,57,42,31,94,79,57,29.80,29.59,11,5,17,0.00
2012-10-27,55,46,40,32,27,22,65,47,29,29.80,29.68,10,5,17,0.00
2012-10-28,56,46,36,32,25,18,77,48,25,29.80,29.71,9,4,15,0.00
2012-10-29,56,43,34,31,23,12,83,50,20,29.85,29.71,10,2,19,0.00
2012-10-30,58,44,31,32,22,14,82,49,19,29.71,29.53,7,1,10,0.00
2012-10-31,62,47,35,41,27,18,85,51,19,29.62,29.56,7,1,10,0.00
2012-11-1,64,48,33,39,28,15,87,55,19,29.71,29.59,5,0,8,0.00
2012-11-2,74,56,42,46,37,31,82,55,22,29.65,29.56,5,0,8,0.00
2012-11-3,80,64,50,61,48,41,93,62,27,29.71,29.53,13,2,15,0.00
2012-11-4,60,49,38,45,31,21,82,53,26,29.83,29.71,7,3,10,0.00
2012-11-5,57,46,36,43,34,24,90,69,30,29.74,29.56,5,1,9,0.00
2012-11-6,56,48,40,45,39,32,88,72,41,29.71,29.59,4,0,8,0.00
2012-11-7,54,43,32,43,30,21,93,64,29,29.80,29.62,10,2,14,0.00
2012-11-8,58,42,28,45,29,23,92,65,28,29.91,29.77,5,1,8,0.00
2012-11-9,68,53,39,37,32,27,82,50,24,29.85,29.74,9,3,11,0.00
2012-11-10,71,59,47,46,39,32,80,50,25,29.85,29.71,10,4,15,0.00
2012-11-11,76,65,58,61,46,39,94,53,28,29.77,29.59,15,7,22,0.00
2012-11-12,62,45,30,61,31,13,96,65,27,30.06,29.65,10,2,14,0.00
2012-11-13,51,38,26,36,20,11,89,54,21,30.12,30.00,6,1,13,0.00
2012-11-14,49,39,31,30,22,17,82,53,32,30.03,29.91,5,0,8,0.00
2012-11-15,56,41,30,36,27,21,91,62,27,29.97,29.88,6,1,8,0.00
2012-11-16,58,43,31,36,24,18,90,54,22,30.03,29.94,7,2,12,0.00
2012-11-17,62,45,30,30,23,19,84,48,21,30.06,29.94,6,1,8,0.00
2012-11-18,63,46,30,43,26,18,88,54,18,30.03,29.91,7,1,8,0.00
2012-11-19,66,49,34,43,31,25,87,55,23,29.94,29.80,7,1,8,0.00
2012-11-20,69,56,45,43,36,28,80,52,24,29.80,29.71,8,1,10,0.00
2012-11-21,66,51,40,52,38,31,95,66,28,29.88,29.74,8,1,11,0.00
2012-11-22,68,51,34,52,35,30,92,58,25,29.85,29.74,9,2,11,0.00
2012-11-23,59,52,40,54,30,16,95,47,19,29.94,29.77,9,3,15,0.00
2012-11-24,45,35,27,18,12,8,69,40,23,30.00,29.77,9,2,13,0.00
2012-11-25,57,42,25,21,18,14,75,43,20,29.80,29.62,10,3,13,0.00
2012-11-26,56,50,43,52,38,18,95,68,33,29.80,29.65,11,2,17,0.00
2012-11-27,46,38,27,41,26,20,95,65,39,30.00,29.80,12,4,17,0.00
2012-11-28,51,36,23,37,21,14,89,62,24,30.09,29.97,6,1,8,0.00
2012-11-29,60,42,28,34,20,13,82,48,19,30.00,29.85,8,2,10,0.00
2012-11-30,63,50,38,43,34,24,85,55,33,29.91,29.80,10,3,12,0.00
2012-12-1,70,58,46,43,38,34,75,48,30,29.85,29.74,11,4,15,0.00
2012-12-2,70,63,59,57,52,41,82,67,50,29.85,29.77,12,5,15,0.00
2012-12-3,73,65,58,61,48,39,92,58,30,29.80,29.68,11,5,15,0.00
2012-12-4,72,62,55,57,54,43,96,76,43,29.83,29.71,12,4,15,0.00
2012-12-5,65,55,44,54,36,24,97,57,24,29.88,29.71,8,2,15,0.00
2012-12-6,64,56,43,57,47,28,91,71,53,29.71,29.56,6,1,8,0.00
2012-12-7,68,60,56,57,52,45,92,77,44,29.59,29.47,9,2,14,0.00
2012-12-8,64,60,58,63,58,54,95,92,82,29.56,29.50,7,0,9,0.00
2012-12-9,72,65,59,63,54,41,96,70,35,29.53,29.38,16,6,20,0.00
2012-12-10,59,42,34,57,30,13,95,64,39,29.71,29.38,9,4,13,0.00
2012-12-11,43,34,26,22,14,8,74,45,26,29.88,29.71,8,2,11,0.00
2012-12-12,49,35,23,29,15,7,87,51,19,29.97,29.88,7,1,10,0.00
2012-12-13,56,37,23,32,17,6,84,50,17,30.00,29.88,5,0,7,0.00
2012-12-14,60,46,29,41,24,17,77,46,25,29.91,29.71,8,2,11,0.00
2012-12-15,61,56,48,59,48,41,92,77,59,29.71,29.44,12,6,17,0.00
2012-12-16,61,60,57,59,57,54,95,90,82,29.47,29.32,10,4,13,0.00
2012-12-17,64,53,35,59,44,30,95,73,33,29.50,29.26,10,3,13,0.00
2012-12-18,61,46,31,48,31,25,92,61,27,29.56,29.44,12,3,19,0.00
2012-12-19,70,58,46,41,34,27,72,45,22,29.59,29.35,11,4,18,0.00
2012-12-20,65,48,36,63,27,7,91,47,28,29.77,29.15,15,6,23,0.00
2012-12-21,45,35,25,13,7,2,58,32,20,29.94,29.77,9,2,14,0.00
2012-12-22,58,39,22,22,16,12,75,43,17,29.94,29.74,9,2,13,0.00
2012-12-23,55,49,42,54,38,16,94,68,29,29.74,29.44,8,2,10,0.00
2012-12-24,57,53,43,57,46,29,97,77,48,29.59,29.38,6,2,10,0.00
2012-12-25,42,38,34,37,31,23,94,78,54,29.62,29.12,14,6,25,0.00
2012-12-26,36,32,30,34,23,16,94,70,51,29.83,29.12,9,3,17,0.00
2012-12-27,42,33,25,28,20,16,88,63,37,29.83,29.65,6,1,8,0.00
2012-12-28,42,37,33,41,33,23,97,86,62,29.71,29.38,8,2,12,0.00
2012-12-29,36,32,23,34,18,11,95,57,40,30.03,29.56,8,2,11,0.00
2012-12-30,43,30,19,26,16,12,81,59,30,30.15,29.94,5,0,6,0.00
2012-12-31,49,41,34,43,25,17,95,55,29,29.94,29.62,10,1,11,0.00
2013-1-1,45,40,32,43,38,25,97,93,74,29.83,29.62,8,3,15,0.00